Time;durP1;ratioP1;P1;durP2;ratioP2;P2;SDS_P1;SDS_P2;PMS_P1;PMS_P2;Temp;Humidity;BMP_temperature;BMP_pressure;BME280_temperature;BME280_humidity;BME280_pressure;Samples;Min_cycle;Max_cycle;Signal;HPM_P1;HPM_P2
2023/06/11 00:01:45;;;;;;;;;;;;;;;21.15;68.45;96412.73;618818;229;62879;-59
2023/06/11 00:04:18;;;;;;;;;;;;;;;21.15;68.45;96407.39;618786;229;65927;-59
2023/06/11 00:06:43;;;;;;;;;;;;;;;21.15;68.46;96410.06;618629;229;67110;-61
2023/06/11 00:09:10;;;;;;;;;;;;;;;21.15;68.44;96412.73;618797;229;65161;-59
2023/06/11 00:11:41;;;;;;;;;;;;;;;21.15;68.44;96410.06;618806;229;65000;-59
2023/06/11 00:14:07;;;;;;;;;;;;;;;21.14;68.46;96411.92;618726;229;67140;-59
2023/06/11 00:16:36;;;;;;;;;;;;;;;21.14;68.46;96419.14;618809;229;62947;-59
2023/06/11 00:19:04;;;;;;;;;;;;;;;21.15;68.44;96420.75;618329;229;65167;-59
2023/06/11 00:21:32;;;;;;;;;;;;;;;21.15;68.44;96418.08;618811;229;67046;-59
2023/06/11 00:24:00;;;;;;;;;;;;;;;21.15;68.45;96418.87;618799;229;65003;-59
2023/06/11 00:26:28;;;;;;;;;;;;;;;21.15;68.46;96418.08;618806;229;67175;-59
2023/06/11 00:28:55;;;;;;;;;;;;;;;21.15;68.47;96412.73;618777;229;67034;-59
2023/06/11 00:31:23;;;;;;;;;;;;;;;21.15;68.46;96418.08;618766;229;62899;-59
2023/06/11 00:33:50;;;;;;;;;;;;;;;21.14;68.46;96435.17;618800;229;67046;-59
2023/06/11 00:36:20;;;;;;;;;;;;;;;21.15;68.45;96436.78;618829;229;66597;-59
2023/06/11 00:38:48;;;;;;;;;;;;;;;21.14;68.45;96438.64;618540;229;65081;-59
2023/06/11 00:41:16;;;;;;;;;;;;;;;21.15;68.44;96434.11;618726;229;67250;-59
2023/06/11 00:43:43;;;;;;;;;;;;;;;21.14;68.44;96429.83;618770;229;67321;-59
2023/06/11 00:46:10;;;;;;;;;;;;;;;21.15;68.46;96428.77;618792;229;66180;-59
2023/06/11 00:48:38;;;;;;;;;;;;;;;21.15;68.45;96434.11;618809;229;64942;-59
2023/06/11 00:51:06;;;;;;;;;;;;;;;21.15;68.45;96437.58;618843;229;67034;-59
2023/06/11 00:53:34;;;;;;;;;;;;;;;21.15;68.45;96434.11;618825;229;65025;-59
2023/06/11 00:56:01;;;;;;;;;;;;;;;21.14;68.43;96440.52;611583;229;68748;-59
2023/06/11 00:58:29;;;;;;;;;;;;;;;21.14;68.43;96437.84;618770;229;66839;-59
2023/06/11 01:00:58;;;;;;;;;;;;;;;21.14;68.43;96437.84;618572;229;62749;-59
2023/06/11 01:03:33;;;;;;;;;;;;;;;21.14;68.46;96443.98;618797;229;66933;-59
2023/06/11 01:06:06;;;;;;;;;;;;;;;21.14;68.46;96441.31;618737;229;67054;-59
2023/06/11 01:08:38;;;;;;;;;;;;;;;21.14;68.44;96437.84;618760;229;64963;-59
2023/06/11 01:11:08;;;;;;;;;;;;;;;21.14;68.48;96438.64;618677;228;67460;-59
2023/06/11 01:13:41;;;;;;;;;;;;;;;21.14;68.44;96440.52;616765;229;67615;-59
2023/06/11 01:16:07;;;;;;;;;;;;;;;21.14;68.46;96437.84;615279;228;65051;-59
2023/06/11 01:18:37;;;;;;;;;;;;;;;21.14;68.46;96432.50;614994;230;64751;-59
2023/06/11 01:21:07;;;;;;;;;;;;;;;21.14;68.46;96437.84;615456;230;64768;-59
2023/06/11 01:23:43;;;;;;;;;;;;;;;21.13;68.42;96436.27;615341;230;67557;-59
2023/06/11 01:26:18;;;;;;;;;;;;;;;21.14;68.43;96437.84;614502;230;64654;-59
2023/06/11 01:28:47;;;;;;;;;;;;;;;21.13;68.46;96434.38;615324;230;67741;-60
2023/06/11 01:31:15;;;;;;;;;;;;;;;21.14;68.46;96435.17;615382;230;65840;-59
2023/06/11 01:33:44;;;;;;;;;;;;;;;21.14;68.46;96435.17;615399;230;65042;-58
2023/06/11 01:36:14;;;;;;;;;;;;;;;21.14;68.44;96432.50;615469;230;64988;-59
2023/06/11 01:38:42;;;;;;;;;;;;;;;21.13;68.44;96430.92;615113;230;65899;-59
2023/06/11 01:41:15;;;;;;;;;;;;;;;21.12;68.43;96430.13;615262;230;48752;-58
2023/06/11 01:43:42;;;;;;;;;;;;;;;21.12;68.42;96427.46;615357;230;67088;-58
2023/06/11 01:46:10;;;;;;;;;;;;;;;21.13;68.43;96420.23;615408;230;62723;-59
2023/06/11 01:48:38;;;;;;;;;;;;;;;21.13;68.44;96428.25;615444;230;67124;-58
2023/06/11 01:51:06;;;;;;;;;;;;;;;21.13;68.44;96420.23;615437;230;64698;-58
2023/06/11 01:53:34;;;;;;;;;;;;;;;21.13;68.43;96425.58;615384;230;65021;-58
2023/06/11 01:56:02;;;;;;;;;;;;;;;21.13;68.44;96430.92;615405;230;64878;-58
2023/06/11 01:58:32;;;;;;;;;;;;;;;21.13;68.43;96430.92;615165;230;44535;-60
2023/06/11 02:01:02;;;;;;;;;;;;;;;21.13;68.44;96425.58;615450;230;62937;-59
2023/06/11 02:03:29;;;;;;;;;;;;;;;21.13;68.43;96430.92;615415;230;67046;-60
2023/06/11 02:05:57;;;;;;;;;;;;;;;21.13;68.43;96428.25;615435;228;66990;-59
2023/06/11 02:08:26;;;;;;;;;;;;;;;21.12;68.44;96424.79;615422;230;65887;-59
2023/06/11 02:10:54;;;;;;;;;;;;;;;21.12;68.43;96424.79;615398;230;67380;-59
2023/06/11 02:13:22;;;;;;;;;;;;;;;21.12;68.42;96430.13;617045;229;66628;-60
2023/06/11 02:15:49;;;;;;;;;;;;;;;21.13;68.41;96420.23;618904;229;65008;-59
2023/06/11 02:18:17;;;;;;;;;;;;;;;21.13;68.42;96433.59;618829;229;65026;-60
2023/06/11 02:20:44;;;;;;;;;;;;;;;21.12;68.42;96432.02;618570;229;64854;-60
2023/06/11 02:23:12;;;;;;;;;;;;;;;21.12;68.40;96429.34;618745;229;65009;-59
2023/06/11 02:25:40;;;;;;;;;;;;;;;21.13;68.41;96425.58;618824;229;67201;-59
2023/06/11 02:28:08;;;;;;;;;;;;;;;21.12;68.42;96432.80;618840;229;66608;-59
2023/06/11 02:30:35;;;;;;;;;;;;;;;21.13;68.43;96430.92;618836;229;65120;-59
2023/06/11 02:33:03;;;;;;;;;;;;;;;21.12;68.43;96430.13;618802;229;64127;-59
2023/06/11 02:35:31;;;;;;;;;;;;;;;21.13;68.43;96426.37;618834;229;67161;-60
2023/06/11 02:37:59;;;;;;;;;;;;;;;21.12;68.40;96429.34;618751;229;62532;-59
2023/06/11 02:40:26;;;;;;;;;;;;;;;21.13;68.42;96430.92;618888;229;64856;-59
2023/06/11 02:42:54;;;;;;;;;;;;;;;21.12;68.41;96430.13;618790;229;64598;-59
2023/06/11 02:45:22;;;;;;;;;;;;;;;21.13;68.43;96428.25;618829;229;65112;-59
2023/06/11 02:47:49;;;;;;;;;;;;;;;21.12;68.42;96429.34;618755;229;67232;-61
2023/06/11 02:50:17;;;;;;;;;;;;;;;21.12;68.42;96427.46;618802;227;67862;-59
2023/06/11 02:52:44;;;;;;;;;;;;;;;21.12;68.40;96427.46;618854;229;64899;-59
2023/06/11 02:55:12;;;;;;;;;;;;;;;21.11;68.42;96428.52;618809;229;67227;-59
2023/06/11 02:57:40;;;;;;;;;;;;;;;21.12;68.42;96429.34;618844;229;67797;-59
2023/06/11 03:00:10;;;;;;;;;;;;;;;21.13;68.43;96436.27;618827;229;63848;-59
2023/06/11 03:02:37;;;;;;;;;;;;;;;21.12;68.40;96432.02;618772;229;67297;-60
2023/06/11 03:05:05;;;;;;;;;;;;;;;21.12;68.44;96432.02;618819;229;66702;-59
2023/06/11 03:07:33;;;;;;;;;;;;;;;21.11;68.43;96439.20;618862;229;65758;-59
2023/06/11 03:10:00;;;;;;;;;;;;;;;21.12;68.43;96445.38;618519;229;67599;-59
2023/06/11 03:12:28;;;;;;;;;;;;;;;21.12;68.44;96445.38;618259;229;67358;-59
2023/06/11 03:14:56;;;;;;;;;;;;;;;21.11;68.43;96441.88;615281;230;65242;-59
2023/06/11 03:17:23;;;;;;;;;;;;;;;21.11;68.44;96443.77;615399;230;65100;-60
2023/06/11 03:19:51;;;;;;;;;;;;;;;21.13;68.43;96441.61;615467;230;65219;-60
2023/06/11 03:22:19;;;;;;;;;;;;;;;21.11;68.44;96439.20;615401;230;65644;-59
2023/06/11 03:24:46;;;;;;;;;;;;;;;21.12;68.44;96445.38;615351;230;64799;-59
2023/06/11 03:27:15;;;;;;;;;;;;;;;21.12;68.44;96440.03;614956;230;49564;-60
2023/06/11 03:29:43;;;;;;;;;;;;;;;21.12;68.46;96445.38;615504;230;65028;-59
2023/06/11 03:32:11;;;;;;;;;;;;;;;21.11;68.43;96441.09;615151;230;64022;-59
2023/06/11 03:34:39;;;;;;;;;;;;;;;21.11;68.46;96451.78;615430;230;67167;-59
2023/06/11 03:37:07;;;;;;;;;;;;;;;21.11;68.45;96449.11;615412;230;64523;-59
2023/06/11 03:39:34;;;;;;;;;;;;;;;21.11;68.46;96447.23;615441;230;67176;-59
2023/06/11 03:42:02;;;;;;;;;;;;;;;21.11;68.44;96443.77;615497;230;64774;-59
2023/06/11 03:44:30;;;;;;;;;;;;;;;21.11;68.47;96443.77;615384;230;65670;-59
2023/06/11 03:46:58;;;;;;;;;;;;;;;21.11;68.46;96452.57;615431;230;67350;-59
2023/06/11 03:49:27;;;;;;;;;;;;;;;21.11;68.47;96446.44;615353;230;47535;-60
2023/06/11 03:51:55;;;;;;;;;;;;;;;21.11;68.47;96449.11;615281;230;66496;-59
2023/06/11 03:54:23;;;;;;;;;;;;;;;21.11;68.49;96443.77;615454;230;67419;-59
2023/06/11 03:56:51;;;;;;;;;;;;;;;21.11;68.49;96438.42;615470;230;64774;-59
2023/06/11 03:59:19;;;;;;;;;;;;;;;21.10;68.50;96437.62;615424;230;65068;-59
2023/06/11 04:01:46;;;;;;;;;;;;;;;21.10;68.51;96434.96;609371;230;68308;-59
2023/06/11 04:04:14;;;;;;;;;;;;;;;21.11;68.50;96443.77;615447;230;66832;-59
2023/06/11 04:06:42;;;;;;;;;;;;;;;21.10;68.52;96447.53;615449;230;62983;-59
2023/06/11 04:09:10;;;;;;;;;;;;;;;21.10;68.53;96450.98;615508;230;66876;-59
2023/06/11 04:11:38;;;;;;;;;;;;;;;21.10;68.53;96447.53;615140;228;64728;-59
2023/06/11 04:14:05;;;;;;;;;;;;;;;21.09;68.54;96444.06;618042;229;62814;-59
2023/06/11 04:16:33;;;;;;;;;;;;;;;21.10;68.56;96440.30;618838;229;64329;-59
2023/06/11 04:19:00;;;;;;;;;;;;;;;21.10;68.55;96442.19;618835;229;66522;-59
2023/06/11 04:21:29;;;;;;;;;;;;;;;21.10;68.54;96440.30;618850;229;65194;-59
2023/06/11 04:23:56;;;;;;;;;;;;;;;21.10;68.56;96442.19;618816;229;67061;-59
2023/06/11 04:26:25;;;;;;;;;;;;;;;21.10;68.56;96445.65;618744;229;66924;-59
2023/06/11 04:28:53;;;;;;;;;;;;;;;21.10;68.56;96447.53;618808;229;65750;-59
2023/06/11 04:31:21;;;;;;;;;;;;;;;21.09;68.56;96440.58;618849;229;66831;-59
2023/06/11 04:33:50;;;;;;;;;;;;;;;21.10;68.59;96442.97;618854;229;64340;-59
2023/06/11 04:36:24;;;;;;;;;;;;;;;21.09;68.58;96448.59;618804;229;63696;-59
2023/06/11 04:38:48;;;;;;;;;;;;;;;21.10;68.57;96452.88;618584;229;66922;-60
2023/06/11 04:41:21;;;;;;;;;;;;;;;21.09;68.60;96449.41;618796;229;64846;-60
2023/06/11 04:43:49;;;;;;;;;;;;;;;21.09;68.61;96451.26;618784;228;42342;-61
2023/06/11 04:46:17;;;;;;;;;;;;;;;21.09;68.60;96452.08;618807;229;66753;-60
2023/06/11 04:48:48;;;;;;;;;;;;;;;21.10;68.60;96452.88;618869;229;66786;-60
2023/06/11 04:51:16;;;;;;;;;;;;;;;21.09;68.63;96451.26;618688;229;63091;-60
2023/06/11 04:53:45;;;;;;;;;;;;;;;21.09;68.65;96453.94;618812;229;67563;-61
2023/06/11 04:56:15;;;;;;;;;;;;;;;21.09;68.64;96445.92;618743;229;44040;-61
2023/06/11 04:58:43;;;;;;;;;;;;;;;21.09;68.64;96440.58;618496;229;64993;-60
2023/06/11 05:01:12;;;;;;;;;;;;;;;21.09;68.65;96449.41;618826;229;64343;-59
2023/06/11 05:03:40;;;;;;;;;;;;;;;21.09;68.67;96446.73;618784;229;66918;-59
2023/06/11 05:06:13;;;;;;;;;;;;;;;21.08;68.66;96447.80;618822;228;42533;-60
2023/06/11 05:08:40;;;;;;;;;;;;;;;21.09;68.70;96446.73;618851;228;44211;-61
2023/06/11 05:11:08;;;;;;;;;;;;;;;21.09;68.69;96456.61;618805;229;65483;-60
2023/06/11 05:13:37;;;;;;;;;;;;;;;21.08;68.73;96455.02;616856;229;65025;-60
2023/06/11 05:16:05;;;;;;;;;;;;;;;21.08;68.72;96450.47;615364;230;67349;-60
2023/06/11 05:18:33;;;;;;;;;;;;;;;21.09;68.74;96456.61;615231;230;67507;-60
2023/06/11 05:21:02;;;;;;;;;;;;;;;21.09;68.74;96461.95;615436;230;43595;-60
2023/06/11 05:23:31;;;;;;;;;;;;;;;21.09;68.75;96454.75;615281;230;66717;-60
2023/06/11 05:26:19;;;;;;;;;;;;;;;21.09;68.76;96453.94;615273;230;45344;-60
2023/06/11 05:28:33;;;;;;;;;;;;;;;21.09;68.79;96461.95;614787;230;65114;-60
2023/06/11 05:31:03;;;;;;;;;;;;;;;21.08;68.80;96458.48;615418;230;66844;-61
2023/06/11 05:33:30;;;;;;;;;;;;;;;21.09;68.79;96462.77;615427;230;67847;-61
2023/06/11 05:35:58;;;;;;;;;;;;;;;21.08;68.81;96452.35;615421;228;65233;-62
2023/06/11 05:38:27;;;;;;;;;;;;;;;21.08;68.82;96461.16;615417;230;64586;-61
2023/06/11 05:40:56;;;;;;;;;;;;;;;21.08;68.84;96463.83;615384;230;67088;-62
2023/06/11 05:43:24;;;;;;;;;;;;;;;21.09;68.82;96461.95;615271;228;65638;-61
2023/06/11 05:45:52;;;;;;;;;;;;;;;21.08;68.84;96463.04;615429;230;66687;-60
2023/06/11 05:48:21;;;;;;;;;;;;;;;21.09;68.82;96459.27;615432;230;67114;-60
2023/06/11 05:50:48;;;;;;;;;;;;;;;21.09;68.87;96456.61;615412;230;65917;-60
2023/06/11 05:53:16;;;;;;;;;;;;;;;21.08;68.88;96455.02;615416;230;67494;-60
2023/06/11 05:55:44;;;;;;;;;;;;;;;21.08;68.89;96460.37;615467;230;67366;-60
2023/06/11 05:58:12;;;;;;;;;;;;;;;21.08;68.88;96463.83;615445;230;66030;-60
2023/06/11 06:00:42;;;;;;;;;;;;;;;21.06;68.91;96456.11;615415;230;64481;-60
2023/06/11 06:03:09;;;;;;;;;;;;;;;21.08;68.91;96463.83;615403;230;67479;-60
2023/06/11 06:05:37;;;;;;;;;;;;;;;21.07;68.93;96459.58;615383;230;65664;-60
2023/06/11 06:08:06;;;;;;;;;;;;;;;21.08;68.96;96465.70;615473;230;64544;-60
2023/06/11 06:10:34;;;;;;;;;;;;;;;21.06;68.84;96464.13;615336;230;66916;-60
2023/06/11 06:13:02;;;;;;;;;;;;;;;21.06;69.39;96453.45;615349;229;63784;-60
2023/06/11 06:15:30;;;;;;;;;;;;;;;21.06;69.71;96461.46;615333;230;67767;-60
2023/06/11 06:17:58;;;;;;;;;;;;;;;21.08;69.36;96455.02;615424;230;66775;-60
2023/06/11 06:20:27;;;;;;;;;;;;;;;21.09;69.31;96459.27;614862;230;42665;-60
2023/06/11 06:22:54;;;;;;;;;;;;;;;21.09;69.25;96461.95;614200;230;64075;-60
2023/06/11 06:25:24;;;;;;;;;;;;;;;21.09;69.29;96461.95;614488;230;64916;-60
2023/06/11 06:27:51;;;;;;;;;;;;;;;21.09;69.27;96464.63;614542;230;65619;-60
2023/06/11 06:30:19;;;;;;;;;;;;;;;21.09;69.33;96459.27;614489;230;67359;-61
2023/06/11 06:32:48;;;;;;;;;;;;;;;21.10;69.40;96466.23;614626;230;63531;-60
2023/06/11 06:35:15;;;;;;;;;;;;;;;21.10;69.42;96464.34;615054;230;65695;-60
2023/06/11 06:37:44;;;;;;;;;;;;;;;21.09;69.38;96462.77;615401;230;66576;-61
2023/06/11 06:40:12;;;;;;;;;;;;;;;21.11;69.46;96465.14;615433;230;64428;-60
2023/06/11 06:42:39;;;;;;;;;;;;;;;21.11;69.44;96465.14;615419;230;62999;-61
2023/06/11 06:45:08;;;;;;;;;;;;;;;21.11;69.48;96465.14;615382;228;66674;-60
2023/06/11 06:47:35;;;;;;;;;;;;;;;21.11;69.48;96465.92;615450;230;64624;-59
2023/06/11 06:50:03;;;;;;;;;;;;;;;21.11;69.52;96457.13;615403;230;62575;-60
2023/06/11 06:52:31;;;;;;;;;;;;;;;21.12;69.49;96461.41;615417;230;64639;-59
2023/06/11 06:54:59;;;;;;;;;;;;;;;21.12;69.54;96458.73;615418;230;66911;-60
2023/06/11 06:57:27;;;;;;;;;;;;;;;21.12;69.51;96456.06;615306;230;65834;-59
2023/06/11 06:59:54;;;;;;;;;;;;;;;21.12;69.55;96456.85;615507;230;67462;-61
2023/06/11 07:02:22;;;;;;;;;;;;;;;21.11;69.50;96457.91;615440;230;66721;-61
2023/06/11 07:04:51;;;;;;;;;;;;;;;21.13;69.56;96458.44;615454;230;65877;-60
2023/06/11 07:07:18;;;;;;;;;;;;;;;21.12;69.57;96456.06;615446;230;66872;-60
2023/06/11 07:09:46;;;;;;;;;;;;;;;21.13;69.50;96454.97;615454;230;66743;-59
2023/06/11 07:12:14;;;;;;;;;;;;;;;21.13;69.54;96454.97;615422;229;65769;-60
2023/06/11 07:14:42;;;;;;;;;;;;;;;21.13;69.55;96447.74;615425;230;67466;-60
2023/06/11 07:17:09;;;;;;;;;;;;;;;21.14;69.56;96448.53;615413;230;67614;-60
2023/06/11 07:19:37;;;;;;;;;;;;;;;21.13;69.57;96452.30;615411;230;65864;-60
2023/06/11 07:22:06;;;;;;;;;;;;;;;21.14;69.57;96448.53;615421;230;67937;-59
2023/06/11 07:24:35;;;;;;;;;;;;;;;21.14;69.58;96448.53;615262;230;67234;-60
2023/06/11 07:27:04;;;;;;;;;;;;;;;21.14;69.62;96443.19;615426;230;62434;-60
2023/06/11 07:29:32;;;;;;;;;;;;;;;21.14;69.63;96443.19;615370;230;66874;-59
2023/06/11 07:32:00;;;;;;;;;;;;;;;21.14;69.61;96438.64;615259;230;66667;-60
2023/06/11 07:34:27;;;;;;;;;;;;;;;21.14;69.61;96437.84;614611;230;65949;-60
2023/06/11 07:36:55;;;;;;;;;;;;;;;21.15;69.62;96444.80;614217;230;67040;-61
2023/06/11 07:39:22;;;;;;;;;;;;;;;21.14;69.63;96448.53;614284;230;64840;-60
2023/06/11 07:41:50;;;;;;;;;;;;;;;21.15;69.62;96442.92;608125;230;68029;-60
2023/06/11 07:44:18;;;;;;;;;;;;;;;21.15;69.63;96447.47;614511;230;68023;-60
2023/06/11 07:46:45;;;;;;;;;;;;;;;21.15;69.64;96439.45;614477;230;64695;-60
2023/06/11 07:49:13;;;;;;;;;;;;;;;21.15;69.62;96442.92;614829;230;66180;-60
2023/06/11 07:51:42;;;;;;;;;;;;;;;21.16;69.64;96446.38;615419;230;67661;-61
2023/06/11 07:54:10;;;;;;;;;;;;;;;21.16;69.63;96441.83;615434;230;67800;-60
2023/06/11 07:56:38;;;;;;;;;;;;;;;21.15;69.62;96444.80;615410;230;65074;-60
2023/06/11 07:59:06;;;;;;;;;;;;;;;21.16;69.62;96438.36;615400;228;64740;-60
2023/06/11 08:01:34;;;;;;;;;;;;;;;21.16;69.61;96441.83;615441;230;66941;-61
2023/06/11 08:04:01;;;;;;;;;;;;;;;21.15;69.64;96434.91;615472;230;65002;-60
2023/06/11 08:06:29;;;;;;;;;;;;;;;21.15;69.61;96434.91;615408;230;64966;-60
2023/06/11 08:08:57;;;;;;;;;;;;;;;21.15;69.60;96437.58;615382;230;67573;-60
2023/06/11 08:11:24;;;;;;;;;;;;;;;21.17;69.66;96437.27;615369;230;63082;-60
2023/06/11 08:13:51;;;;;;;;;;;;;;;21.17;69.62;96445.29;615366;229;64920;-60
2023/06/11 08:16:19;;;;;;;;;;;;;;;21.16;69.60;96441.83;615464;230;64911;-60
2023/06/11 08:18:46;;;;;;;;;;;;;;;21.16;69.61;96435.69;615429;230;62814;-59
2023/06/11 08:21:14;;;;;;;;;;;;;;;21.16;69.59;96433.02;615406;230;65081;-60
2023/06/11 08:23:41;;;;;;;;;;;;;;;21.17;69.61;96434.60;615403;230;65876;-60
2023/06/11 08:26:09;;;;;;;;;;;;;;;21.16;69.58;96441.03;615429;230;63172;-61
2023/06/11 08:28:37;;;;;;;;;;;;;;;21.17;69.54;96438.09;615421;230;64747;-61
2023/06/11 08:31:05;;;;;;;;;;;;;;;21.17;69.58;96443.44;615470;230;64991;-60
2023/06/11 08:33:33;;;;;;;;;;;;;;;21.17;69.54;96431.92;615396;230;65046;-60
2023/06/11 08:36:00;;;;;;;;;;;;;;;21.17;69.53;96440.77;615381;230;67390;-60
2023/06/11 08:38:28;;;;;;;;;;;;;;;21.17;69.56;96431.92;615354;230;67029;-60
2023/06/11 08:40:55;;;;;;;;;;;;;;;21.17;69.51;96434.60;615418;230;65146;-60
2023/06/11 08:43:24;;;;;;;;;;;;;;;21.18;69.52;96434.33;615472;230;67254;-60
2023/06/11 08:45:51;;;;;;;;;;;;;;;21.17;69.50;96437.27;615433;230;67139;-60
2023/06/11 08:48:23;;;;;;;;;;;;;;;21.18;69.53;96425.52;615418;230;62899;-59
2023/06/11 08:50:51;;;;;;;;;;;;;;;21.17;69.47;96424.73;615404;230;64874;-61
2023/06/11 08:53:19;;;;;;;;;;;;;;;21.17;69.45;96415.89;615422;230;64878;-60
2023/06/11 08:55:48;;;;;;;;;;;;;;;21.18;69.46;96433.53;615427;230;62919;-60
2023/06/11 08:58:16;;;;;;;;;;;;;;;21.18;69.43;96428.20;615403;230;64861;-59
2023/06/11 09:00:44;;;;;;;;;;;;;;;21.18;69.41;96433.53;615429;230;64817;-59
2023/06/11 09:03:11;;;;;;;;;;;;;;;21.17;69.48;96419.39;615407;230;65062;-59
2023/06/11 09:05:39;;;;;;;;;;;;;;;21.18;69.42;96420.17;615375;228;67272;-60
2023/06/11 09:08:08;;;;;;;;;;;;;;;21.18;69.41;96417.51;615467;230;67238;-61
2023/06/11 09:10:36;;;;;;;;;;;;;;;21.18;69.41;96422.84;615403;230;63046;-59
2023/06/11 09:13:05;;;;;;;;;;;;;;;21.18;69.46;96417.51;616103;229;65042;-60
2023/06/11 09:15:33;;;;;;;;;;;;;;;21.18;69.44;96414.83;618779;229;70352;-59
2023/06/11 09:18:01;;;;;;;;;;;;;;;21.18;69.44;96414.83;611649;229;63766;-60
2023/06/11 09:20:31;;;;;;;;;;;;;;;21.18;69.45;96412.95;618779;229;67269;-61
2023/06/11 09:22:59;;;;;;;;;;;;;;;21.18;69.43;96406.81;618789;229;67394;-61
2023/06/11 09:25:28;;;;;;;;;;;;;;;21.18;69.40;96404.94;618487;229;64985;-60
2023/06/11 09:27:55;;;;;;;;;;;;;;;21.19;69.42;96408.39;618738;228;65005;-59
2023/06/11 09:30:23;;;;;;;;;;;;;;;21.19;69.42;96403.05;618746;229;67127;-60
2023/06/11 09:32:52;;;;;;;;;;;;;;;21.19;69.46;96403.05;618891;229;44872;-59
2023/06/11 09:35:21;;;;;;;;;;;;;;;21.19;69.49;96405.73;618795;229;64980;-59
2023/06/11 09:37:50;;;;;;;;;;;;;;;21.19;69.46;96405.73;618790;229;67042;-59
2023/06/11 09:40:19;;;;;;;;;;;;;;;21.19;69.45;96397.70;618791;229;65101;-59
2023/06/11 09:42:48;;;;;;;;;;;;;;;21.19;69.46;96395.83;618775;229;66878;-59
2023/06/11 09:45:16;;;;;;;;;;;;;;;21.20;69.45;96399.31;618750;229;67025;-60
2023/06/11 09:47:45;;;;;;;;;;;;;;;21.19;69.42;96400.38;618812;229;65043;-59
2023/06/11 09:50:14;;;;;;;;;;;;;;;21.19;69.40;96409.19;618777;229;67502;-59
2023/06/11 09:52:42;;;;;;;;;;;;;;;21.21;69.43;96406.24;618745;229;67237;-59
2023/06/11 09:55:11;;;;;;;;;;;;;;;21.20;69.38;96399.31;618796;229;63938;-59
2023/06/11 09:57:39;;;;;;;;;;;;;;;21.20;69.40;96396.64;618796;229;64819;-59
2023/06/11 10:00:09;;;;;;;;;;;;;;;21.20;69.44;96393.97;618833;229;64976;-59
2023/06/11 10:02:37;;;;;;;;;;;;;;;21.19;69.40;96393.16;618777;229;65095;-59
2023/06/11 10:05:06;;;;;;;;;;;;;;;21.20;69.40;96393.97;618819;229;67260;-60
2023/06/11 10:07:44;;;;;;;;;;;;;;;21.19;69.43;96390.48;618783;229;65817;-59
2023/06/11 10:10:12;;;;;;;;;;;;;;;21.20;69.41;96393.97;618798;229;65181;-59
2023/06/11 10:12:40;;;;;;;;;;;;;;;21.20;69.42;96391.30;618676;229;64971;-60
2023/06/11 10:15:13;;;;;;;;;;;;;;;21.19;69.41;96393.16;618831;229;64914;-59
2023/06/11 10:17:50;;;;;;;;;;;;;;;21.20;69.40;96394.77;618787;229;65034;-60
2023/06/11 10:20:19;;;;;;;;;;;;;;;21.20;69.44;96388.63;618768;229;67308;-60
2023/06/11 10:22:46;;;;;;;;;;;;;;;21.20;69.44;96397.44;618802;229;67040;-60
2023/06/11 10:25:14;;;;;;;;;;;;;;;21.20;69.48;96384.08;618793;229;65039;-60
2023/06/11 10:27:42;;;;;;;;;;;;;;;21.20;69.52;96376.06;618881;229;67143;-60
2023/06/11 10:30:10;;;;;;;;;;;;;;;21.19;69.50;96374.45;618866;229;64512;-60
2023/06/11 10:32:39;;;;;;;;;;;;;;;21.20;69.49;96383.28;618828;229;62983;-60
2023/06/11 10:35:07;;;;;;;;;;;;;;;21.19;69.49;96371.77;618458;227;66814;-60
2023/06/11 10:37:36;;;;;;;;;;;;;;;21.21;69.48;96371.50;618844;229;67002;-60
2023/06/11 10:40:09;;;;;;;;;;;;;;;21.21;69.52;96374.17;618812;229;62915;-59
2023/06/11 10:42:38;;;;;;;;;;;;;;;21.21;69.47;96374.97;618726;227;66931;-59
2023/06/11 10:45:12;;;;;;;;;;;;;;;21.21;69.45;96379.52;618843;229;66927;-59
2023/06/11 10:47:44;;;;;;;;;;;;;;;21.20;69.46;96368.05;618824;227;65062;-59
2023/06/11 10:50:12;;;;;;;;;;;;;;;21.20;69.46;96369.92;618834;229;64643;-59
2023/06/11 10:52:50;;;;;;;;;;;;;;;21.21;69.47;96376.84;618783;229;67107;-60
2023/06/11 10:55:20;;;;;;;;;;;;;;;21.21;69.44;96374.17;618845;229;65150;-59
2023/06/11 10:57:52;;;;;;;;;;;;;;;21.20;69.47;96373.38;618866;229;66745;-59
2023/06/11 11:00:20;;;;;;;;;;;;;;;21.21;69.45;96368.83;618590;229;64773;-59
2023/06/11 11:02:47;;;;;;;;;;;;;;;21.20;69.48;96367.25;618803;229;62786;-60
2023/06/11 11:05:15;;;;;;;;;;;;;;;21.21;69.44;96368.83;618814;229;67283;-60
2023/06/11 11:07:48;;;;;;;;;;;;;;;21.21;69.45;96360.81;618817;229;65003;-59
2023/06/11 11:10:13;;;;;;;;;;;;;;;21.21;69.46;96360.81;618646;229;62907;-59
2023/06/11 11:12:42;;;;;;;;;;;;;;;21.21;69.48;96358.14;618061;229;67225;-59
2023/06/11 11:15:12;;;;;;;;;;;;;;;21.21;69.45;96358.14;615426;230;67094;-59
2023/06/11 11:17:40;;;;;;;;;;;;;;;21.21;69.42;96358.93;615449;230;62774;-59
2023/06/11 11:20:12;;;;;;;;;;;;;;;21.21;69.40;96369.62;615420;230;64746;-59
2023/06/11 11:22:39;;;;;;;;;;;;;;;21.21;69.40;96360.81;615444;230;67155;-59
2023/06/11 11:25:07;;;;;;;;;;;;;;;21.22;69.39;96357.05;615450;230;65153;-59
2023/06/11 11:27:37;;;;;;;;;;;;;;;21.21;69.43;96364.28;615381;230;67242;-59
2023/06/11 11:30:07;;;;;;;;;;;;;;;21.22;69.39;96362.39;615425;228;64859;-59
2023/06/11 11:32:34;;;;;;;;;;;;;;;21.22;69.41;96362.39;615431;230;65115;-59
2023/06/11 11:35:03;;;;;;;;;;;;;;;21.22;69.42;96359.72;615395;230;66993;-59
2023/06/11 11:37:32;;;;;;;;;;;;;;;21.22;69.44;96359.72;615456;230;67022;-59
2023/06/11 11:40:06;;;;;;;;;;;;;;;21.22;69.44;96365.06;615422;230;65129;-59
2023/06/11 11:42:53;;;;;;;;;;;;;;;21.22;69.44;96367.73;615440;230;67263;-59
2023/06/11 11:45:22;;;;;;;;;;;;;;;21.22;69.44;96371.20;615438;230;66896;-59
2023/06/11 11:47:51;;;;;;;;;;;;;;;21.23;69.45;96366.67;615413;230;63068;-59
2023/06/11 11:50:21;;;;;;;;;;;;;;;21.22;69.41;96363.18;615233;230;67323;-59
2023/06/11 11:53:03;;;;;;;;;;;;;;;21.23;69.45;96366.67;615268;230;67331;-59
2023/06/11 11:55:28;;;;;;;;;;;;;;;21.23;69.45;96358.66;610756;230;63084;-59
2023/06/11 11:58:09;;;;;;;;;;;;;;;21.22;69.45;96355.16;615424;230;64968;-59
2023/06/11 12:00:37;;;;;;;;;;;;;;;21.22;69.44;96365.06;615436;228;67164;-59
2023/06/11 12:03:09;;;;;;;;;;;;;;;21.22;69.45;96363.18;615408;230;62941;-59
2023/06/11 12:05:37;;;;;;;;;;;;;;;21.22;69.43;96363.18;615434;230;65039;-59
2023/06/11 12:08:05;;;;;;;;;;;;;;;21.21;69.45;96361.60;615447;230;67186;-59
2023/06/11 12:10:33;;;;;;;;;;;;;;;21.22;69.48;96365.06;615449;230;65116;-59
2023/06/11 12:13:01;;;;;;;;;;;;;;;21.23;69.50;96358.66;615351;229;67022;-59
2023/06/11 12:15:29;;;;;;;;;;;;;;;21.22;69.51;96359.72;615422;230;64921;-59
2023/06/11 12:17:56;;;;;;;;;;;;;;;21.23;69.52;96350.64;615407;230;63045;-59
2023/06/11 12:20:24;;;;;;;;;;;;;;;21.23;69.52;96362.12;615479;230;65391;-59
2023/06/11 12:22:51;;;;;;;;;;;;;;;21.23;69.52;96367.46;615412;230;64942;-59
2023/06/11 12:25:18;;;;;;;;;;;;;;;21.23;69.52;96359.45;615382;230;62919;-59
2023/06/11 12:27:46;;;;;;;;;;;;;;;21.24;69.51;96362.91;615442;230;64928;-59
2023/06/11 12:30:13;;;;;;;;;;;;;;;21.23;69.51;96361.33;615428;228;67013;-59
2023/06/11 12:32:41;;;;;;;;;;;;;;;21.23;69.50;96364.79;615454;230;65090;-59
2023/06/11 12:35:08;;;;;;;;;;;;;;;21.23;69.50;96355.98;615444;230;67356;-59
2023/06/11 12:37:36;;;;;;;;;;;;;;;21.23;69.57;96350.64;615412;230;67111;-59
2023/06/11 12:40:04;;;;;;;;;;;;;;;21.23;69.59;96351.42;615383;228;65105;-60
2023/06/11 12:42:33;;;;;;;;;;;;;;;21.24;69.58;96349.55;615401;230;67239;-59
2023/06/11 12:45:01;;;;;;;;;;;;;;;21.23;69.55;96342.63;615412;230;67004;-59
2023/06/11 12:47:28;;;;;;;;;;;;;;;21.24;69.53;96352.22;615481;230;62986;-59
2023/06/11 12:49:56;;;;;;;;;;;;;;;21.23;69.53;96346.09;615397;230;65055;-59
2023/06/11 12:52:23;;;;;;;;;;;;;;;21.24;69.53;96349.55;615389;230;64961;-59
2023/06/11 12:54:51;;;;;;;;;;;;;;;21.24;69.49;96354.89;615403;230;63067;-59